Time;durP1;ratioP1;P1;durP2;ratioP2;P2;SDS_P1;SDS_P2;PMS_P1;PMS_P2;Temp;Humidity;BMP_temperature;BMP_pressure;BME280_temperature;BME280_humidity;BME280_pressure;Samples;Min_cycle;Max_cycle;Signal;HPM_P1;HPM_P2
2021/12/12 00:01:28;;;;;;;9.70;5.07;;;1.30;99.90;;;;;;4809258;29;20420;-90
2021/12/12 00:04:09;;;;;;;9.30;5.32;;;1.30;99.90;;;;;;4824938;29;20408;-90
2021/12/12 00:06:40;;;;;;;10.27;5.53;;;1.30;99.90;;;;;;4808797;29;20919;-89
2021/12/12 00:09:23;;;;;;;9.80;5.27;;;1.40;99.90;;;;;;4824015;29;20416;-90
2021/12/12 00:11:51;;;;;;;8.73;5.00;;;1.40;99.90;;;;;;4808771;29;20469;-89
2021/12/12 00:14:26;;;;;;;8.23;4.93;;;1.30;99.90;;;;;;4808352;29;20449;-89
2021/12/12 00:16:55;;;;;;;9.90;5.20;;;1.40;99.90;;;;;;4823950;29;20412;-90
2021/12/12 00:19:25;;;;;;;7.68;4.57;;;1.40;99.90;;;;;;4823994;29;20411;-90
2021/12/12 00:21:59;;;;;;;11.85;6.32;;;1.30;99.90;;;;;;4808798;29;20405;-89
2021/12/12 00:24:27;;;;;;;11.00;6.07;;;1.30;99.90;;;;;;4808709;29;20524;-90
2021/12/12 00:26:56;;;;;;;9.68;5.50;;;1.30;99.90;;;;;;4823836;29;20423;-89
2021/12/12 00:29:26;;;;;;;12.65;6.38;;;1.30;99.90;;;;;;4808478;29;20416;-90
2021/12/12 00:31:59;;;;;;;11.20;5.97;;;1.30;99.90;;;;;;4808377;29;20426;-90
2021/12/12 00:34:29;;;;;;;10.63;5.55;;;1.30;99.90;;;;;;4823684;29;20415;-90
2021/12/12 00:36:57;;;;;;;10.13;5.95;;;1.30;99.90;;;;;;4808081;29;20431;-90
2021/12/12 00:39:28;;;;;;;11.23;6.18;;;1.30;99.90;;;;;;4824020;29;20454;-89
2021/12/12 00:42:18;;;;;;;10.97;5.90;;;1.30;99.90;;;;;;4808395;29;20424;-90
2021/12/12 00:44:50;;;;;;;9.30;5.60;;;1.20;99.90;;;;;;4808756;29;20412;-89
2021/12/12 00:47:18;;;;;;;9.90;5.43;;;1.20;99.90;;;;;;4808420;29;20488;-90
2021/12/12 00:50:10;;;;;;;9.18;5.25;;;1.20;99.90;;;;;;4810665;29;20464;-90
2021/12/12 00:52:39;;;;;;;9.85;5.13;;;1.20;99.90;;;;;;4823171;29;20980;-90
2021/12/12 00:55:06;;;;;;;7.50;4.50;;;1.20;99.90;;;;;;4808220;29;20435;-89
2021/12/12 00:57:34;;;;;;;8.02;4.22;;;1.20;99.90;;;;;;4807914;29;20412;-90
2021/12/12 01:00:05;;;;;;;6.72;3.67;;;1.20;99.90;;;;;;4823250;29;20880;-90
2021/12/12 01:02:33;;;;;;;7.30;4.10;;;1.20;99.90;;;;;;4808115;29;20440;-90
2021/12/12 01:05:03;;;;;;;5.47;3.20;;;1.20;99.90;;;;;;4823230;29;20446;-90
2021/12/12 01:07:35;;;;;;;5.65;3.28;;;1.20;99.90;;;;;;4807930;29;20514;-90
2021/12/12 01:10:13;;;;;;;5.05;2.97;;;1.20;99.90;;;;;;4807828;29;20425;-90
2021/12/12 01:12:41;;;;;;;3.47;2.13;;;1.10;99.90;;;;;;4808166;29;20424;-90
2021/12/12 01:15:27;;;;;;;4.80;2.83;;;1.10;99.90;;;;;;4807816;29;20416;-90
2021/12/12 01:17:58;;;;;;;4.53;2.60;;;1.10;99.90;;;;;;4823315;29;20412;-90
2021/12/12 01:20:36;;;;;;;3.87;2.27;;;1.10;99.90;;;;;;4823120;29;20412;-90
2021/12/12 01:23:22;;;;;;;4.83;2.90;;;1.10;99.90;;;;;;4822922;29;20476;-91
2021/12/12 01:25:51;;;;;;;3.97;2.35;;;1.10;99.90;;;;;;4823044;29;20488;-91
2021/12/12 01:28:24;;;;;;;4.35;2.20;;;1.10;99.90;;;;;;4808093;29;20469;-90
2021/12/12 01:30:55;;;;;;;3.70;2.05;;;1.10;99.90;;;;;;4823057;29;20423;-89
2021/12/12 01:33:36;;;;;;;4.25;2.15;;;1.10;99.90;;;;;;4823397;29;20408;-90
2021/12/12 01:36:08;;;;;;;3.00;1.80;;;1.10;99.90;;;;;;4807780;29;20420;-90
2021/12/12 01:42:05;;;;;;;3.28;1.70;;;1.00;99.90;;;;;;4822505;29;20468;-91
2021/12/12 01:45:15;;;;;;;3.38;2.10;;;1.00;99.90;;;;;;4821089;29;20808;-90
2021/12/12 01:48:13;;;;;;;2.97;2.00;;;1.00;99.90;;;;;;4802224;29;20489;-90
2021/12/12 01:50:47;;;;;;;4.30;2.50;;;1.00;99.90;;;;;;4822948;29;20400;-90
2021/12/12 01:53:18;;;;;;;4.07;2.17;;;1.00;99.90;;;;;;4807184;29;20821;-90
2021/12/12 01:55:48;;;;;;;3.47;2.03;;;1.00;99.90;;;;;;4807323;29;20408;-90
2021/12/12 01:58:20;;;;;;;4.65;2.40;;;0.90;99.90;;;;;;4822297;29;20423;-90
2021/12/12 02:00:56;;;;;;;5.80;2.70;;;1.00;99.90;;;;;;4822635;29;20455;-90
2021/12/12 02:03:28;;;;;;;5.78;3.20;;;0.90;99.90;;;;;;4822327;29;20803;-90
2021/12/12 02:05:56;;;;;;;7.07;3.47;;;0.90;99.90;;;;;;4823388;29;20407;-90
2021/12/12 02:08:27;;;;;;;8.45;3.75;;;0.90;99.90;;;;;;4807428;29;20589;-90
2021/12/12 02:11:02;;;;;;;6.35;3.30;;;1.00;99.90;;;;;;4822242;29;20423;-90
2021/12/12 02:13:36;;;;;;;8.80;4.50;;;1.00;99.90;;;;;;4822736;29;20449;-90
2021/12/12 02:16:04;;;;;;;9.13;4.15;;;1.00;99.90;;;;;;4822376;29;20412;-90
2021/12/12 02:18:36;;;;;;;9.90;4.73;;;1.00;99.90;;;;;;4822086;29;20424;-90
2021/12/12 02:21:22;;;;;;;9.98;4.45;;;1.00;99.90;;;;;;4822060;29;20416;-90
2021/12/12 02:37:54;;;;;;;5.45;3.60;;;0.90;99.90;;;;;;4822427;29;20525;-90
2021/12/12 02:40:26;;;;;;;10.80;3.85;;;1.00;99.90;;;;;;4822078;29;20887;-91
2021/12/12 02:42:54;;;;;;;7.90;4.35;;;1.00;99.90;;;;;;4807102;29;20409;-91
2021/12/12 02:45:24;;;;;;;7.22;3.88;;;1.00;99.90;;;;;;4806965;29;20977;-91
2021/12/12 02:47:58;;;;;;;7.15;4.13;;;1.00;99.90;;;;;;4807294;29;20511;-91
2021/12/12 02:50:41;;;;;;;5.97;3.53;;;0.90;99.90;;;;;;4806873;29;20408;-90
2021/12/12 02:53:15;;;;;;;7.95;3.75;;;1.00;99.90;;;;;;4806778;29;20436;-91
2021/12/12 02:55:49;;;;;;;8.95;3.28;;;1.00;99.90;;;;;;4806792;29;20515;-91
2021/12/12 02:58:22;;;;;;;7.15;4.03;;;1.00;99.90;;;;;;4807266;29;20428;-91
2021/12/12 03:01:28;;;;;;;10.38;3.58;;;1.00;99.90;;;;;;4809973;29;20722;-89
2021/12/12 03:03:56;;;;;;;6.15;3.53;;;0.90;99.90;;;;;;4825034;29;20428;-92
2021/12/12 03:06:27;;;;;;;8.00;4.00;;;0.90;99.90;;;;;;4810165;29;20499;-91
2021/12/12 03:09:04;;;;;;;11.32;4.30;;;0.90;99.90;;;;;;4825028;29;20903;-90
2021/12/12 03:11:32;;;;;;;15.50;4.35;;;0.90;99.90;;;;;;4809767;29;20424;-91
2021/12/12 03:13:59;;;;;;;9.60;4.57;;;0.90;99.90;;;;;;4824745;29;20416;-90
2021/12/12 03:16:27;;;;;;;10.18;5.28;;;0.80;99.90;;;;;;4809999;29;20424;-91
2021/12/12 03:18:55;;;;;;;9.57;4.78;;;0.80;99.90;;;;;;4824735;29;20934;-91
2021/12/12 03:21:32;;;;;;;14.32;3.88;;;0.80;99.90;;;;;;4825011;29;20416;-90
2021/12/12 03:24:08;;;;;;;9.65;3.70;;;0.90;99.90;;;;;;4824605;29;20432;-91
2021/12/12 03:26:36;;;;;;;7.82;3.58;;;0.80;99.90;;;;;;4825004;29;20423;-91
2021/12/12 03:29:06;;;;;;;8.60;3.83;;;0.80;99.90;;;;;;4809406;29;20463;-90
2021/12/12 03:31:38;;;;;;;8.75;3.97;;;0.80;99.90;;;;;;4824554;29;20412;-91
2021/12/12 03:34:09;;;;;;;13.53;4.07;;;0.80;99.90;;;;;;4809730;29;20788;-91
2021/12/12 03:36:37;;;;;;;7.15;4.13;;;0.80;99.90;;;;;;4824406;29;20447;-91
2021/12/12 03:39:27;;;;;;;10.57;5.03;;;0.80;99.90;;;;;;4824157;29;20416;-90
2021/12/12 03:41:56;;;;;;;19.05;6.30;;;0.80;99.90;;;;;;4824409;29;20437;-91
2021/12/12 03:44:29;;;;;;;31.98;5.47;;;0.80;99.90;;;;;;4809532;29;20403;-90
2021/12/12 03:47:07;;;;;;;14.90;5.00;;;0.70;99.90;;;;;;4809517;29;20431;-90
2021/12/12 03:49:37;;;;;;;30.92;3.67;;;0.70;99.90;;;;;;4809585;29;20794;-91
2021/12/12 03:52:11;;;;;;;10.48;3.58;;;0.70;99.90;;;;;;4823965;29;20408;-90
2021/12/12 03:54:40;;;;;;;10.60;4.37;;;0.70;99.90;;;;;;4825200;29;20899;-90
2021/12/12 03:57:08;;;;;;;7.03;3.63;;;0.70;99.90;;;;;;4809110;29;20416;-91
2021/12/12 03:59:36;;;;;;;7.93;4.22;;;0.70;99.90;;;;;;4824046;29;20504;-91
2021/12/12 04:02:05;;;;;;;10.17;4.43;;;0.80;99.90;;;;;;4809030;29;20419;-90
2021/12/12 04:04:37;;;;;;;7.97;3.70;;;0.80;99.90;;;;;;4824458;29;20424;-90
2021/12/12 04:07:17;;;;;;;11.50;3.53;;;0.80;99.90;;;;;;4808906;29;20447;-91
2021/12/12 04:09:46;;;;;;;8.07;4.22;;;0.80;99.90;;;;;;4823284;29;20416;-91
2021/12/12 04:12:16;;;;;;;10.20;3.08;;;0.80;99.90;;;;;;4808722;29;20772;-91
2021/12/12 04:14:44;;;;;;;6.88;3.80;;;0.70;99.90;;;;;;4824197;29;20753;-90
2021/12/12 04:17:17;;;;;;;7.65;3.80;;;0.80;99.90;;;;;;4823736;29;20476;-90
2021/12/12 04:19:47;;;;;;;4.75;3.10;;;0.70;99.90;;;;;;4824348;29;20442;-90
2021/12/12 04:22:15;;;;;;;8.35;4.00;;;0.70;99.90;;;;;;4808725;29;20420;-90
2021/12/12 04:24:46;;;;;;;5.05;3.20;;;0.70;99.90;;;;;;4808596;29;20420;-90
2021/12/12 04:27:15;;;;;;;9.13;3.30;;;0.80;99.90;;;;;;4808596;29;20525;-90
2021/12/12 04:29:46;;;;;;;7.55;4.20;;;0.80;99.90;;;;;;4823517;29;20451;-90
2021/12/12 04:32:24;;;;;;;7.03;3.50;;;0.80;99.90;;;;;;4823804;29;20684;-91
2021/12/12 04:34:55;;;;;;;11.75;3.25;;;0.80;99.90;;;;;;4808913;29;20416;-91
2021/12/12 04:37:24;;;;;;;9.03;3.30;;;0.70;99.90;;;;;;4824066;29;20461;-90
2021/12/12 04:39:57;;;;;;;6.88;2.58;;;0.70;99.90;;;;;;4808606;29;20497;-89
2021/12/12 04:42:31;;;;;;;27.03;3.13;;;0.70;99.90;;;;;;4823489;29;20420;-89
2021/12/12 04:45:43;;;;;;;10.23;2.72;;;0.60;99.90;;;;;;4808433;29;20415;-90
2021/12/12 04:51:37;;;;;;;26.38;2.85;;;0.50;99.90;;;;;;4823347;29;20956;-90
2021/12/12 04:54:21;;;;;;;10.45;2.70;;;0.60;99.90;;;;;;4823843;29;20404;-90
2021/12/12 04:57:20;;;;;;;11.10;4.00;;;0.60;99.90;;;;;;4823193;29;20472;-89
2021/12/12 04:59:53;;;;;;;25.70;4.95;;;0.50;99.90;;;;;;4807919;29;20896;-90
2021/12/12 05:02:38;;;;;;;45.60;5.40;;;0.50;99.90;;;;;;4823438;29;20661;-90
2021/12/12 05:05:06;;;;;;;11.93;4.07;;;0.50;99.90;;;;;;4823419;29;20416;-91
2021/12/12 05:07:48;;;;;;;19.52;4.38;;;0.50;99.90;;;;;;4808411;29;20404;-90
2021/12/12 05:10:24;;;;;;;23.23;3.60;;;0.50;99.90;;;;;;4807855;29;20396;-90
2021/12/12 05:13:01;;;;;;;10.35;4.13;;;0.50;99.90;;;;;;4822918;29;20427;-90
2021/12/12 05:15:34;;;;;;;9.57;5.13;;;0.50;99.90;;;;;;4823003;29;20509;-90
2021/12/12 05:18:20;;;;;;;10.52;4.35;;;0.60;99.90;;;;;;4823136;29;20942;-90
2021/12/12 05:21:15;;;;;;;13.50;6.18;;;0.60;99.90;;;;;;4823079;29;20540;-91
2021/12/12 05:23:47;;;;;;;14.50;4.90;;;0.60;99.90;;;;;;4823102;29;20404;-90
2021/12/12 05:26:33;;;;;;;12.63;4.43;;;0.60;99.90;;;;;;4807647;29;20810;-90
2021/12/12 05:29:17;;;;;;;11.38;4.75;;;0.60;99.90;;;;;;4807780;29;20424;-89
2021/12/12 05:31:50;;;;;;;13.55;4.78;;;0.60;99.90;;;;;;4822760;29;20458;-89
2021/12/12 05:34:20;;;;;;;13.95;5.75;;;0.60;99.90;;;;;;4807812;29;20544;-90
2021/12/12 05:36:48;;;;;;;10.07;4.50;;;0.60;99.90;;;;;;4807495;29;20481;-91
2021/12/12 05:39:16;;;;;;;11.13;4.10;;;0.60;99.90;;;;;;4822747;29;20420;-90
2021/12/12 05:41:45;;;;;;;11.90;4.78;;;0.60;99.90;;;;;;4822807;29;20480;-90
2021/12/12 05:44:12;;;;;;;9.75;4.25;;;0.60;99.90;;;;;;4807608;29;20473;-90
2021/12/12 05:46:40;;;;;;;10.27;3.20;;;0.50;99.90;;;;;;4822869;29;20419;-91
2021/12/12 05:49:10;;;;;;;9.43;5.60;;;0.60;99.90;;;;;;4807626;29;20428;-89
2021/12/12 05:51:37;;;;;;;7.55;4.03;;;0.60;99.90;;;;;;4822489;29;20895;-90
2021/12/12 05:54:06;;;;;;;8.60;4.30;;;0.60;99.90;;;;;;4807624;29;20423;-91
2021/12/12 05:56:36;;;;;;;9.55;5.95;;;0.60;99.90;;;;;;4822880;29;20469;-89
2021/12/12 05:59:05;;;;;;;12.80;4.30;;;0.60;99.90;;;;;;4822459;29;20913;-89
2021/12/12 06:01:33;;;;;;;11.50;5.30;;;0.60;99.90;;;;;;4807133;29;20468;-89
2021/12/12 06:04:02;;;;;;;9.98;4.65;;;0.50;99.90;;;;;;4822286;29;20428;-90
2021/12/12 06:06:36;;;;;;;11.75;5.35;;;0.60;99.90;;;;;;4822373;29;20431;-89
2021/12/12 06:09:06;;;;;;;9.95;5.35;;;0.50;99.90;;;;;;4806928;29;20424;-90
2021/12/12 06:11:35;;;;;;;12.93;5.75;;;0.40;99.90;;;;;;4822618;29;20423;-90
2021/12/12 06:14:06;;;;;;;11.27;6.30;;;0.50;99.90;;;;;;4822313;29;20418;-90
2021/12/12 06:16:36;;;;;;;9.70;5.30;;;0.50;99.90;;;;;;4807367;29;20817;-90
2021/12/12 06:19:10;;;;;;;16.17;3.95;;;0.60;99.90;;;;;;4806818;29;20443;-89
2021/12/12 06:21:38;;;;;;;12.27;4.57;;;0.50;99.90;;;;;;4807037;29;20424;-90
2021/12/12 06:24:06;;;;;;;15.57;3.72;;;0.50;99.90;;;;;;4822164;29;20407;-90
2021/12/12 06:26:35;;;;;;;8.10;3.42;;;0.40;99.90;;;;;;4807119;29;20420;-90
2021/12/12 06:29:04;;;;;;;9.13;3.70;;;0.40;99.90;;;;;;4806832;29;20935;-91
2021/12/12 06:31:36;;;;;;;8.63;3.08;;;0.40;99.90;;;;;;4822214;29;20431;-90
2021/12/12 06:34:04;;;;;;;10.85;3.08;;;0.50;99.90;;;;;;4808685;29;20416;-89
2021/12/12 06:36:32;;;;;;;7.75;3.00;;;0.40;99.90;;;;;;4810459;29;20416;-89
2021/12/12 06:39:00;;;;;;;10.07;2.88;;;0.40;99.90;;;;;;4807900;29;20456;-89
2021/12/12 06:41:29;;;;;;;6.50;2.88;;;0.50;99.90;;;;;;4825480;29;20412;-89
2021/12/12 06:43:56;;;;;;;10.70;3.17;;;0.40;99.90;;;;;;4812514;29;20417;-90
2021/12/12 06:46:25;;;;;;;9.30;2.80;;;0.40;99.90;;;;;;4807526;29;20426;-90
2021/12/12 06:48:53;;;;;;;6.55;2.80;;;0.40;99.90;;;;;;4794144;29;20506;-90
2021/12/12 06:51:21;;;;;;;7.28;2.92;;;0.30;99.90;;;;;;4792193;29;20449;-89
2021/12/12 06:53:49;;;;;;;6.13;3.00;;;0.40;99.90;;;;;;4792175;29;20420;-89
2021/12/12 06:56:19;;;;;;;7.57;2.80;;;0.40;99.90;;;;;;4819906;29;20424;-89
2021/12/12 06:58:51;;;;;;;6.20;3.78;;;0.40;99.90;;;;;;4791913;29;20770;-90
2021/12/12 07:01:22;;;;;;;10.98;2.92;;;0.40;99.90;;;;;;4792034;29;20554;-89
2021/12/12 07:03:52;;;;;;;9.85;2.88;;;0.30;99.90;;;;;;4791878;29;20441;-89
2021/12/12 07:06:22;;;;;;;10.55;2.75;;;0.30;99.90;;;;;;4807240;29;20421;-89
2021/12/12 07:08:52;;;;;;;6.25;2.60;;;0.30;99.90;;;;;;4791818;29;20920;-90
2021/12/12 07:11:21;;;;;;;9.82;2.30;;;0.30;99.90;;;;;;4791949;29;20425;-89
2021/12/12 07:13:51;;;;;;;7.93;3.00;;;0.30;99.90;;;;;;4791906;29;20418;-91
2021/12/12 07:16:20;;;;;;;6.30;3.47;;;0.30;99.90;;;;;;4796877;29;20512;-89
2021/12/12 07:18:50;;;;;;;5.13;2.55;;;0.40;99.90;;;;;;4803727;29;20427;-91
2021/12/12 07:21:18;;;;;;;6.93;3.00;;;0.30;99.90;;;;;;4824567;29;20549;-90
2021/12/12 07:23:49;;;;;;;10.35;3.08;;;0.30;99.90;;;;;;4809788;29;20473;-89
2021/12/12 07:26:19;;;;;;;10.18;4.15;;;0.30;99.90;;;;;;4809447;29;20775;-90
2021/12/12 07:28:47;;;;;;;10.25;4.07;;;0.40;99.90;;;;;;4824345;29;20994;-90
2021/12/12 07:31:22;;;;;;;10.18;3.28;;;0.30;99.90;;;;;;4809451;29;20416;-89
2021/12/12 07:33:53;;;;;;;9.48;4.63;;;0.30;99.90;;;;;;4824359;29;20412;-89
2021/12/12 07:36:23;;;;;;;5.85;3.65;;;0.40;99.90;;;;;;4825381;29;20404;-92
2021/12/12 07:38:58;;;;;;;10.93;5.23;;;0.50;99.90;;;;;;4824632;29;20443;-90
2021/12/12 07:41:28;;;;;;;7.63;4.80;;;0.50;99.90;;;;;;4839473;29;20408;-90
2021/12/12 07:43:58;;;;;;;10.60;5.28;;;0.50;99.90;;;;;;4839396;29;20414;-90
2021/12/12 07:46:27;;;;;;;8.90;4.07;;;0.50;99.90;;;;;;4838444;29;20416;-91
2021/12/12 07:48:57;;;;;;;11.88;5.68;;;0.50;99.90;;;;;;4839385;29;20424;-90
2021/12/12 07:51:26;;;;;;;12.57;5.88;;;0.40;99.90;;;;;;4809154;29;20499;-90
2021/12/12 07:54:01;;;;;;;10.55;3.97;;;0.50;99.90;;;;;;4809893;29;20420;-90
2021/12/12 07:56:32;;;;;;;12.57;5.72;;;0.40;99.90;;;;;;4809244;29;20890;-90
2021/12/12 07:59:04;;;;;;;9.18;4.60;;;0.40;99.90;;;;;;4838892;29;20416;-90
2021/12/12 08:01:32;;;;;;;13.30;4.82;;;0.30;99.90;;;;;;4827662;29;20772;-89
2021/12/12 08:04:01;;;;;;;14.75;6.03;;;0.30;99.90;;;;;;4839206;29;20416;-89
2021/12/12 08:06:30;;;;;;;17.17;5.82;;;0.30;99.90;;;;;;4839481;29;20412;-89
2021/12/12 08:08:59;;;;;;;12.83;5.90;;;0.20;99.90;;;;;;4823713;29;20504;-89
2021/12/12 08:11:33;;;;;;;13.63;5.88;;;0.20;99.90;;;;;;4838851;29;20432;-90
2021/12/12 08:14:06;;;;;;;15.38;6.65;;;0.30;99.90;;;;;;4838954;29;20508;-89
2021/12/12 08:16:34;;;;;;;15.10;7.47;;;0.40;99.90;;;;;;4838868;29;20419;-90
2021/12/12 08:19:02;;;;;;;21.85;8.95;;;0.40;99.90;;;;;;4823581;29;20415;-90
2021/12/12 08:21:33;;;;;;;21.92;8.27;;;0.50;99.90;;;;;;4838609;29;20424;-89
2021/12/12 08:24:06;;;;;;;25.63;9.98;;;0.50;99.90;;;;;;4808562;29;20446;-89
2021/12/12 08:26:36;;;;;;;20.80;8.23;;;0.50;99.90;;;;;;4823614;29;20423;-90
2021/12/12 08:29:08;;;;;;;17.20;8.57;;;0.40;99.90;;;;;;4837963;29;20439;-90
2021/12/12 08:31:38;;;;;;;26.55;8.27;;;0.40;99.90;;;;;;4816349;29;20522;-90
2021/12/12 08:34:09;;;;;;;22.45;9.40;;;0.40;99.90;;;;;;4823706;29;20407;-90
2021/12/12 08:36:40;;;;;;;23.08;9.93;;;0.40;99.90;;;;;;4808564;29;20412;-89
2021/12/12 08:39:10;;;;;;;23.27;9.88;;;0.40;99.90;;;;;;4822953;29;20419;-90
2021/12/12 08:41:38;;;;;;;23.77;9.45;;;0.40;99.90;;;;;;4823004;29;20408;-90
2021/12/12 08:44:08;;;;;;;28.10;11.80;;;0.40;99.90;;;;;;4807750;29;20915;-90
2021/12/12 08:46:39;;;;;;;30.77;13.55;;;0.50;99.90;;;;;;4812545;29;20418;-89
2021/12/12 08:49:08;;;;;;;31.63;13.68;;;0.50;99.90;;;;;;4804686;29;20429;-90
2021/12/12 08:51:40;;;;;;;27.65;10.07;;;0.60;99.90;;;;;;4818743;29;20477;-90
2021/12/12 08:54:14;;;;;;;29.57;12.70;;;0.60;99.90;;;;;;4823247;29;20423;-89
2021/12/12 08:56:48;;;;;;;31.67;9.98;;;0.50;99.90;;;;;;4822917;29;20426;-89
2021/12/12 08:59:20;;;;;;;31.05;10.65;;;0.50;99.90;;;;;;4823150;29;20784;-90
2021/12/12 09:01:51;;;;;;;29.75;11.75;;;0.50;99.90;;;;;;4808008;29;20412;-90
2021/12/12 09:04:19;;;;;;;33.97;12.67;;;0.50;99.90;;;;;;4823107;29;20464;-89
2021/12/12 09:07:06;;;;;;;44.47;14.82;;;0.50;99.90;;;;;;4823290;29;20412;-90
2021/12/12 09:09:44;;;;;;;37.65;13.85;;;0.60;99.90;;;;;;4823106;29;20899;-90
2021/12/12 09:12:23;;;;;;;38.10;13.98;;;0.60;99.90;;;;;;4819792;29;20413;-89
2021/12/12 09:15:03;;;;;;;27.83;9.95;;;0.60;99.90;;;;;;4805183;29;20405;-89
2021/12/12 09:17:50;;;;;;;25.17;9.30;;;0.60;99.90;;;;;;4820042;29;20409;-89
2021/12/12 09:20:35;;;;;;;24.35;9.02;;;0.50;99.90;;;;;;4804182;29;20433;-89
2021/12/12 09:23:09;;;;;;;27.05;8.95;;;0.60;99.90;;;;;;4832844;29;20420;-90
2021/12/12 09:25:50;;;;;;;25.42;8.52;;;0.50;99.90;;;;;;4835177;29;20514;-89
2021/12/12 09:28:43;;;;;;;26.48;10.45;;;0.50;99.90;;;;;;4820053;29;20408;-91
2021/12/12 09:31:16;;;;;;;17.92;8.57;;;0.60;99.90;;;;;;4837673;29;20495;-90
2021/12/12 09:33:49;;;;;;;27.67;7.80;;;0.60;99.90;;;;;;4823955;29;20876;-90
2021/12/12 09:36:34;;;;;;;25.35;9.25;;;0.60;99.90;;;;;;4822591;29;20460;-90
2021/12/12 09:39:29;;;;;;;38.95;10.88;;;0.60;99.90;;;;;;4837443;29;20416;-90
2021/12/12 09:42:28;;;;;;;23.00;8.30;;;0.50;99.90;;;;;;4801053;29;20935;-89
2021/12/12 09:45:23;;;;;;;25.15;9.75;;;0.50;99.90;;;;;;4822419;29;20484;-90
2021/12/12 09:51:29;;;;;;;26.48;9.57;;;0.50;99.90;;;;;;4811090;29;20424;-89
2021/12/12 09:54:19;;;;;;;27.73;10.18;;;0.50;99.90;;;;;;4820083;29;20422;-89
2021/12/12 09:57:31;;;;;;;43.57;9.83;;;0.50;99.90;;;;;;4807642;29;20887;-90
2021/12/12 10:00:26;;;;;;;31.63;10.18;;;0.50;99.90;;;;;;4822297;29;20428;-90
2021/12/12 10:03:07;;;;;;;27.80;11.80;;;0.50;99.90;;;;;;4804449;29;20433;-90
2021/12/12 10:05:51;;;;;;;37.00;11.18;;;0.50;99.90;;;;;;4804165;29;20948;-90
2021/12/12 10:08:45;;;;;;;30.57;10.50;;;0.50;99.90;;;;;;4804906;29;20436;-89
2021/12/12 10:11:32;;;;;;;58.72;12.40;;;0.50;99.90;;;;;;4807848;29;20433;-89
2021/12/12 10:14:23;;;;;;;58.90;27.13;;;0.50;99.90;;;;;;4807513;29;20453;-88
2021/12/12 10:17:03;;;;;;;30.08;11.63;;;0.50;99.90;;;;;;4835229;29;20419;-89
2021/12/12 10:19:43;;;;;;;39.40;11.80;;;0.50;99.90;;;;;;4825319;29;20454;-88
2021/12/12 10:22:35;;;;;;;32.60;13.05;;;0.50;99.90;;;;;;4840677;29;20933;-89
2021/12/12 10:25:16;;;;;;;40.22;14.80;;;0.50;99.90;;;;;;4825483;29;20403;-90
2021/12/12 10:27:44;;;;;;;27.93;12.43;;;0.50;99.90;;;;;;4825574;29;20791;-88
2021/12/12 10:30:18;;;;;;;50.10;14.80;;;0.50;99.90;;;;;;4840559;29;20427;-88
2021/12/12 10:33:08;;;;;;;72.97;13.90;;;0.50;99.90;;;;;;4825321;29;20412;-89
2021/12/12 10:35:42;;;;;;;51.58;13.02;;;0.50;99.90;;;;;;4825685;29;20415;-88
2021/12/12 10:38:41;;;;;;;41.47;12.57;;;0.40;99.90;;;;;;4825368;29;20499;-89
2021/12/12 10:41:26;;;;;;;35.58;14.07;;;0.40;99.90;;;;;;4825163;29;20420;-89
2021/12/12 10:43:56;;;;;;;36.00;12.27;;;0.50;99.90;;;;;;4810307;29;20891;-89
2021/12/12 10:46:41;;;;;;;26.30;12.05;;;0.50;99.90;;;;;;4819623;29;20514;-89
2021/12/12 10:49:52;;;;;;;25.58;12.27;;;0.50;99.90;;;;;;4839952;29;20426;-89
2021/12/12 10:52:31;;;;;;;50.67;13.10;;;0.50;99.90;;;;;;4824839;29;20660;-89
2021/12/12 10:55:14;;;;;;;29.05;12.65;;;0.50;99.90;;;;;;4840002;29;20416;-89
2021/12/12 10:57:52;;;;;;;34.83;14.65;;;0.50;99.90;;;;;;4824741;29;20419;-89
2021/12/12 11:00:33;;;;;;;33.65;14.75;;;0.50;99.90;;;;;;4840348;29;20426;-89
2021/12/12 11:03:14;;;;;;;25.48;13.60;;;0.50;99.90;;;;;;4823634;29;20503;-90
2021/12/12 11:05:47;;;;;;;23.97;12.67;;;0.50;99.90;;;;;;4806889;29;20939;-89
2021/12/12 11:08:31;;;;;;;22.63;12.60;;;0.50;99.90;;;;;;4824531;29;20419;-89
2021/12/12 11:11:19;;;;;;;24.10;13.38;;;0.50;99.90;;;;;;4821411;29;20851;-88
2021/12/12 11:13:58;;;;;;;26.98;13.20;;;0.50;99.90;;;;;;4822677;29;20951;-89
2021/12/12 11:16:34;;;;;;;26.10;14.18;;;0.50;99.90;;;;;;4824858;29;20412;-89
2021/12/12 11:19:09;;;;;;;28.35;15.32;;;0.50;99.90;;;;;;4824471;29;20423;-89
2021/12/12 11:22:03;;;;;;;21.40;12.27;;;0.50;99.90;;;;;;4800168;29;20455;-87
2021/12/12 11:24:39;;;;;;;25.23;12.93;;;0.50;99.90;;;;;;4824627;29;20558;-89
2021/12/12 11:27:12;;;;;;;23.48;12.90;;;0.50;99.90;;;;;;4840153;29;20415;-89
2021/12/12 11:29:47;;;;;;;24.50;13.15;;;0.50;99.90;;;;;;4839847;29;20427;-90
2021/12/12 11:32:26;;;;;;;28.08;15.63;;;0.50;99.90;;;;;;4824554;29;20447;-89
2021/12/12 11:34:57;;;;;;;25.90;13.80;;;0.50;99.90;;;;;;4809612;29;20580;-89
2021/12/12 11:38:03;;;;;;;28.27;14.95;;;0.50;99.90;;;;;;4838393;29;20516;-90
2021/12/12 11:41:10;;;;;;;26.77;13.93;;;0.50;99.90;;;;;;4812581;29;20416;-90
2021/12/12 11:44:11;;;;;;;27.73;14.48;;;0.50;99.90;;;;;;4822522;29;20476;-90
2021/12/12 11:47:13;;;;;;;24.92;13.50;;;0.50;99.90;;;;;;4810374;29;20428;-89
2021/12/12 11:50:06;;;;;;;30.65;16.95;;;0.50;99.90;;;;;;4839569;29;20911;-89
2021/12/12 11:52:36;;;;;;;23.50;13.02;;;0.50;99.90;;;;;;4823807;29;20427;-90
2021/12/12 11:55:16;;;;;;;26.50;15.40;;;0.50;99.90;;;;;;4802200;29;20426;-89
2021/12/12 11:58:03;;;;;;;27.52;13.90;;;0.50;99.90;;;;;;4836350;29;20436;-89
2021/12/12 12:00:47;;;;;;;27.38;14.52;;;0.50;99.90;;;;;;4837025;29;20500;-90
2021/12/12 12:03:34;;;;;;;25.80;14.25;;;0.50;99.90;;;;;;4838827;29;20420;-88
2021/12/12 12:06:01;;;;;;;24.75;13.75;;;0.50;99.90;;;;;;4823936;29;20464;-88
2021/12/12 12:08:45;;;;;;;26.87;14.93;;;0.50;99.90;;;;;;4808877;29;20424;-90
2021/12/12 12:11:25;;;;;;;29.08;15.40;;;0.40;99.90;;;;;;4823389;29;20491;-88
2021/12/12 12:13:58;;;;;;;27.02;14.40;;;0.40;99.90;;;;;;4814004;29;20426;-90
2021/12/12 12:16:49;;;;;;;27.27;15.02;;;0.40;99.90;;;;;;4807329;29;20421;-87
2021/12/12 12:19:56;;;;;;;34.65;18.77;;;0.40;99.90;;;;;;4821095;29;20429;-89
2021/12/12 12:23:06;;;;;;;32.92;17.52;;;0.40;99.90;;;;;;4808566;29;20428;-88
2021/12/12 12:28:42;;;;;;;30.77;17.35;;;0.40;99.90;;;;;;4838646;29;20400;-88
2021/12/12 12:31:39;;;;;;;34.15;17.58;;;0.40;99.90;;;;;;4822803;29;20837;-88
2021/12/12 12:34:45;;;;;;;40.83;22.73;;;0.30;99.90;;;;;;4837823;29;20418;-88
2021/12/12 12:37:50;;;;;;;38.03;19.38;;;0.40;99.90;;;;;;4820132;29;20488;-88
2021/12/12 12:41:08;;;;;;;35.00;18.50;;;0.40;99.90;;;;;;4821665;29;20428;-89
2021/12/12 12:44:14;;;;;;;32.72;17.95;;;0.40;99.90;;;;;;4815298;29;20431;-89
2021/12/12 12:47:52;;;;;;;38.35;20.00;;;0.40;99.90;;;;;;4835660;29;20451;-89
2021/12/12 12:50:42;;;;;;;38.55;19.13;;;0.40;99.90;;;;;;4823163;29;20840;-90
2021/12/12 12:53:34;;;;;;;41.28;19.85;;;0.30;99.90;;;;;;4838264;29;20404;-89
2021/12/12 12:56:43;;;;;;;44.13;22.80;;;0.30;99.90;;;;;;4838064;29;20473;-89
2021/12/12 12:59:55;;;;;;;44.50;21.52;;;0.30;99.90;;;;;;4807623;29;20476;-89
2021/12/12 13:02:38;;;;;;;48.03;23.00;;;0.30;99.90;;;;;;4807599;29;21000;-89
2021/12/12 13:05:06;;;;;;;42.75;21.83;;;0.20;99.90;;;;;;4837894;29;20489;-89
2021/12/12 13:08:13;;;;;;;41.33;21.45;;;0.30;99.90;;;;;;4822935;29;20829;-89
2021/12/12 13:10:42;;;;;;;40.65;21.88;;;0.30;99.90;;;;;;4823011;29;20768;-89
2021/12/12 13:13:43;;;;;;;40.47;21.63;;;0.30;99.90;;;;;;4837879;29;20419;-89
2021/12/12 13:16:18;;;;;;;40.13;19.58;;;0.30;99.90;;;;;;4816145;29;20412;-88
2021/12/12 13:19:11;;;;;;;39.53;20.75;;;0.30;99.90;;;;;;4822753;29;20419;-89
2021/12/12 13:22:02;;;;;;;36.47;19.05;;;0.30;99.90;;;;;;4807781;29;20415;-89
2021/12/12 13:24:36;;;;;;;37.90;20.20;;;0.20;99.90;;;;;;4822600;29;20420;-88
2021/12/12 13:31:13;;;;;;;52.05;23.83;;;0.20;99.90;;;;;;4803046;29;20427;-88
2021/12/12 13:33:57;;;;;;;46.00;22.48;;;0.30;99.90;;;;;;4837473;29;20431;-88
2021/12/12 13:36:50;;;;;;;57.05;23.15;;;0.20;99.90;;;;;;4837566;29;20411;-88
2021/12/12 13:39:39;;;;;;;58.38;34.70;;;0.30;99.90;;;;;;4822483;29;20437;-88
2021/12/12 13:42:08;;;;;;;69.07;35.50;;;0.30;99.90;;;;;;4819401;29;20464;-89
2021/12/12 13:44:55;;;;;;;50.33;21.95;;;0.40;99.90;;;;;;4803953;29;20430;-87
2021/12/12 13:47:44;;;;;;;51.40;23.27;;;0.30;99.90;;;;;;4828269;29;20499;-88
2021/12/12 13:50:26;;;;;;;62.53;26.30;;;0.30;99.90;;;;;;4821256;29;20420;-88
2021/12/12 13:53:18;;;;;;;54.13;26.23;;;0.40;99.90;;;;;;4829291;29;20408;-89
2021/12/12 13:56:08;;;;;;;94.88;27.20;;;0.40;99.90;;;;;;4821910;29;20520;-89
2021/12/12 13:58:37;;;;;;;75.95;22.17;;;0.40;99.90;;;;;;4821835;29;20449;-88
2021/12/12 14:01:10;;;;;;;58.20;21.83;;;0.40;99.90;;;;;;4821655;29;20431;-88
2021/12/12 14:03:41;;;;;;;98.80;23.20;;;0.30;99.90;;;;;;4822075;29;20440;-88
2021/12/12 14:06:14;;;;;;;70.00;25.30;;;0.20;99.90;;;;;;4812715;29;20923;-88
2021/12/12 14:08:50;;;;;;;62.15;22.90;;;0.20;99.90;;;;;;4821731;29;20498;-88
2021/12/12 14:11:26;;;;;;;76.15;22.88;;;0.20;99.90;;;;;;4796724;29;20436;-88